East Millstone, New Jersey
Current Conditions -  °F | °C
As of 10:53 AM on Wednesday 28 Jan 2015 (Local Time) from KSMQ Reporting Station
Clear Clear  
Wind Chill: 12°   Ceiling: Unl
Heat Index: 25°   Visibility: 10mi
Dew Point:   Wind: 17mph
Humidity: 46%   Direction: 310°NW
Pressure: 30.08"   Gusts: 24mph
Location:  40.5013°N, 74.5325°W
Report Text: KSMQ 281553Z AUTO 31015G21KT 10SM CLR M04/M14 A3008 RMK AO2 SLP190 T10391139 TSNO
Loading
Personal Weather Stations






























Interactive Weather Map New forecast layout! Learn more

10-Day Weather Forecast

Advertisements
Track Severe Weather on mobile